Terminal Aerodrome Forecast
Issued by NWS Sioux Falls, SD

Home | Current Version | Previous Version | Graphics & Text | Print | Product List | Glossary On
Versions: 1 2 3 4 5 6 7 8 9 10 11 12 13 14 15 16 17 18 19 20
598
FTUS43 KFSD 231844 AAA
TAFHON
TAF AMD
KHON 231844Z 2319/2418 11015G21KT P6SM FEW020 SCT080
     FM232100 12015G22KT P6SM SCT250
     FM240100 14015KT P6SM SCT060
     FM241200 14011KT P6SM OVC080
      TEMPO 2412/2415 4SM TSRA BKN035CB
     FM241500 15012G19KT P6SM OVC040=

USA.gov is the U.S. government's official web portal to all federal, state and local government web resources and services.